Bavaria

Go HERE for most recent data if this page is not up to date.

Jump to table bottom
Date Time Temp F RH % AVG Wind Max Wind Wind Dir 24 Snow Depth
*01/26/22 05 15.1 34 15 23 W - 275 0.2 52.0
*01/26/22 04 14.9 34 11 17 W - 270 0.3 52.1
*01/26/22 03 14.5 39 11 16 W - 270 0.3 52.3
*01/26/22 02 14.2 38 10 14 W - 279 0.4 52.6
*01/26/22 01 13.7 41 12 17 W - 274 0.3 52.6
*01/26/22 00 14.0 42 12 20 W - 256 0.3 52.8
*01/25/22 23 14.2 45 11 20 W - 261 0.3 52.7
*01/25/22 22 15.4 41 8 20 W - 262 0.3 52.9
*01/25/22 21 14.3 48 11 20 SW - 222 0.2 52.7
*01/25/22 20 13.3 55 9 18 SW - 234 0.1 52.6
*01/25/22 19 12.5 48 10 18 S - 172 0.2 52.5
*01/25/22 18 9.6 72 10 17 NW - 321 0.2 52.3
*01/25/22 17 10.9 65 12 19 N - 22 -0.0 52.1
*01/25/22 16 10.2 76 11 16 W - 284 -0.2 143.3
*01/25/22 15 11.5 74 10 15 W - 264 -0.1 143.3
*01/25/22 14 10.9 77 6 13 NW - 293 5.9 143.3
*01/25/22 13 13.1 69 4 8 W - 254 6.2 143.3
*01/25/22 12 12.0 72 4 8 W - 259 5.7 51.8
*01/25/22 11 14.6 68 2 6 SE - 140 6.0 51.9
*01/25/22 10 11.2 75 5 12 W - 288 7.2 52.2
*01/25/22 09 8.8 82 5 13 NW - 318 7.2 53.2
*01/25/22 08 7.3 83 2 6 NE - 50 7.4 53.4
*01/25/22 07 7.9 84 3 7 W - 249 6.9 53.0
*01/25/22 06 8.1 84 4 11 S - 166 6.6 52.6
*01/25/22 05 7.9 85 5 12 SW - 207 6.2 53.4
*01/25/22 04 8.2 82 9 20 S - 193 6.6 53.7
*01/25/22 03 7.9 80 8 20 NE - 37 6.4 53.3
*01/25/22 02 7.7 81 3 9 SE - 153 5.8 52.6
*01/25/22 01 8.6 83 3 14 SW - 222 5.4 52.0
*01/25/22 00 9.3 80 10 18 NE - 39 5.8 52.1
.